sensor_id;sensor_type;location;lat;lon;timestamp;P1;durP1;ratioP1;P2;durP2;ratioP2
36411;SDS011;22445;52.100;5.176;2022-11-20T00:01:08;19.45;;;10.80;;
36411;SDS011;22445;52.100;5.176;2022-11-20T00:03:55;15.48;;;9.43;;
36411;SDS011;22445;52.100;5.176;2022-11-20T00:06:24;16.90;;;9.30;;
36411;SDS011;22445;52.100;5.176;2022-11-20T00:08:50;16.25;;;9.25;;
36411;SDS011;22445;52.100;5.176;2022-11-20T00:11:17;20.45;;;11.43;;
36411;SDS011;22445;52.100;5.176;2022-11-20T00:13:44;19.85;;;11.15;;
36411;SDS011;22445;52.100;5.176;2022-11-20T00:16:11;18.60;;;10.70;;
36411;SDS011;22445;52.100;5.176;2022-11-20T00:18:38;21.10;;;11.27;;
36411;SDS011;22445;52.100;5.176;2022-11-20T00:21:25;16.58;;;10.07;;
36411;SDS011;22445;52.100;5.176;2022-11-20T00:23:50;21.98;;;10.50;;
36411;SDS011;22445;52.100;5.176;2022-11-20T00:26:17;20.40;;;10.82;;
36411;SDS011;22445;52.100;5.176;2022-11-20T00:28:48;20.30;;;10.45;;
36411;SDS011;22445;52.100;5.176;2022-11-20T00:31:21;18.75;;;10.23;;
36411;SDS011;22445;52.100;5.176;2022-11-20T00:33:46;14.68;;;9.73;;
36411;SDS011;22445;52.100;5.176;2022-11-20T00:36:13;14.98;;;9.85;;
36411;SDS011;22445;52.100;5.176;2022-11-20T00:38:43;18.35;;;9.75;;
36411;SDS011;22445;52.100;5.176;2022-11-20T00:41:10;17.92;;;9.68;;
36411;SDS011;22445;52.100;5.176;2022-11-20T00:43:37;14.57;;;8.63;;
36411;SDS011;22445;52.100;5.176;2022-11-20T00:46:04;14.70;;;9.50;;
36411;SDS011;22445;52.100;5.176;2022-11-20T00:48:31;18.23;;;10.52;;
36411;SDS011;22445;52.100;5.176;2022-11-20T00:50:57;18.13;;;9.55;;
36411;SDS011;22445;52.100;5.176;2022-11-20T00:53:23;17.15;;;9.63;;
36411;SDS011;22445;52.100;5.176;2022-11-20T00:58:45;14.57;;;9.35;;
36411;SDS011;22445;52.100;5.176;2022-11-20T01:01:13;18.65;;;10.18;;
36411;SDS011;22445;52.100;5.176;2022-11-20T01:03:48;16.27;;;9.98;;
36411;SDS011;22445;52.100;5.176;2022-11-20T01:06:16;16.55;;;9.50;;
36411;SDS011;22445;52.100;5.176;2022-11-20T01:08:46;19.27;;;9.60;;
36411;SDS011;22445;52.100;5.176;2022-11-20T01:11:13;18.98;;;10.43;;
36411;SDS011;22445;52.100;5.176;2022-11-20T01:13:40;17.63;;;9.77;;
36411;SDS011;22445;52.100;5.176;2022-11-20T01:16:10;16.83;;;10.32;;
36411;SDS011;22445;52.100;5.176;2022-11-20T01:18:39;16.10;;;9.35;;
36411;SDS011;22445;52.100;5.176;2022-11-20T01:21:07;18.45;;;10.13;;
36411;SDS011;22445;52.100;5.176;2022-11-20T01:23:35;22.40;;;11.35;;
36411;SDS011;22445;52.100;5.176;2022-11-20T01:26:06;20.63;;;10.15;;
36411;SDS011;22445;52.100;5.176;2022-11-20T01:28:33;20.35;;;11.13;;
36411;SDS011;22445;52.100;5.176;2022-11-20T01:30:59;18.02;;;10.20;;
36411;SDS011;22445;52.100;5.176;2022-11-20T01:33:25;21.33;;;10.40;;
36411;SDS011;22445;52.100;5.176;2022-11-20T01:35:52;18.13;;;10.23;;
36411;SDS011;22445;52.100;5.176;2022-11-20T01:38:18;17.02;;;9.93;;
36411;SDS011;22445;52.100;5.176;2022-11-20T01:40:45;17.25;;;10.50;;
36411;SDS011;22445;52.100;5.176;2022-11-20T01:43:16;17.40;;;10.02;;
36411;SDS011;22445;52.100;5.176;2022-11-20T01:51:48;22.30;;;10.70;;
36411;SDS011;22445;52.100;5.176;2022-11-20T01:55:00;20.98;;;11.48;;
36411;SDS011;22445;52.100;5.176;2022-11-20T01:57:24;19.50;;;11.52;;
36411;SDS011;22445;52.100;5.176;2022-11-20T01:59:53;18.95;;;10.85;;
36411;SDS011;22445;52.100;5.176;2022-11-20T02:02:25;20.55;;;10.65;;
36411;SDS011;22445;52.100;5.176;2022-11-20T02:04:51;21.42;;;11.80;;
36411;SDS011;22445;52.100;5.176;2022-11-20T02:07:19;18.35;;;10.38;;
36411;SDS011;22445;52.100;5.176;2022-11-20T02:09:45;19.55;;;11.30;;
36411;SDS011;22445;52.100;5.176;2022-11-20T02:12:11;18.67;;;10.13;;
36411;SDS011;22445;52.100;5.176;2022-11-20T02:14:56;14.45;;;8.60;;
36411;SDS011;22445;52.100;5.176;2022-11-20T02:17:22;19.50;;;12.82;;
36411;SDS011;22445;52.100;5.176;2022-11-20T02:19:49;18.52;;;12.27;;
36411;SDS011;22445;52.100;5.176;2022-11-20T02:22:17;19.27;;;12.75;;
36411;SDS011;22445;52.100;5.176;2022-11-20T02:24:46;16.85;;;12.07;;
36411;SDS011;22445;52.100;5.176;2022-11-20T02:27:13;20.40;;;10.25;;
36411;SDS011;22445;52.100;5.176;2022-11-20T02:32:36;17.80;;;10.80;;
36411;SDS011;22445;52.100;5.176;2022-11-20T02:38:07;16.73;;;10.48;;
36411;SDS011;22445;52.100;5.176;2022-11-20T02:40:32;17.73;;;9.88;;
36411;SDS011;22445;52.100;5.176;2022-11-20T02:42:58;15.93;;;10.07;;
36411;SDS011;22445;52.100;5.176;2022-11-20T02:45:24;18.27;;;9.77;;
36411;SDS011;22445;52.100;5.176;2022-11-20T02:47:50;16.75;;;10.10;;
36411;SDS011;22445;52.100;5.176;2022-11-20T02:50:16;19.08;;;11.32;;
36411;SDS011;22445;52.100;5.176;2022-11-20T02:52:42;17.60;;;10.18;;
36411;SDS011;22445;52.100;5.176;2022-11-20T02:55:07;19.13;;;11.35;;
36411;SDS011;22445;52.100;5.176;2022-11-20T02:57:33;16.55;;;10.30;;
36411;SDS011;22445;52.100;5.176;2022-11-20T02:59:58;17.33;;;10.32;;
36411;SDS011;22445;52.100;5.176;2022-11-20T03:02:24;17.42;;;10.68;;
36411;SDS011;22445;52.100;5.176;2022-11-20T03:04:50;17.10;;;10.52;;
36411;SDS011;22445;52.100;5.176;2022-11-20T03:07:15;17.92;;;9.63;;
36411;SDS011;22445;52.100;5.176;2022-11-20T03:09:41;18.70;;;10.00;;
36411;SDS011;22445;52.100;5.176;2022-11-20T03:12:06;19.63;;;10.70;;
36411;SDS011;22445;52.100;5.176;2022-11-20T03:14:32;16.23;;;9.38;;
36411;SDS011;22445;52.100;5.176;2022-11-20T03:16:58;17.00;;;10.02;;
36411;SDS011;22445;52.100;5.176;2022-11-20T03:19:24;16.27;;;9.57;;
36411;SDS011;22445;52.100;5.176;2022-11-20T03:21:49;17.75;;;10.93;;
36411;SDS011;22445;52.100;5.176;2022-11-20T03:24:15;18.63;;;10.27;;
36411;SDS011;22445;52.100;5.176;2022-11-20T03:26:40;18.17;;;10.30;;
36411;SDS011;22445;52.100;5.176;2022-11-20T03:29:06;18.33;;;9.73;;
36411;SDS011;22445;52.100;5.176;2022-11-20T03:31:36;17.17;;;9.23;;
36411;SDS011;22445;52.100;5.176;2022-11-20T03:34:03;16.67;;;9.85;;
36411;SDS011;22445;52.100;5.176;2022-11-20T03:36:29;15.38;;;9.95;;
36411;SDS011;22445;52.100;5.176;2022-11-20T03:38:55;16.92;;;10.10;;
36411;SDS011;22445;52.100;5.176;2022-11-20T03:41:26;15.77;;;9.68;;
36411;SDS011;22445;52.100;5.176;2022-11-20T03:43:57;16.90;;;9.38;;
36411;SDS011;22445;52.100;5.176;2022-11-20T03:46:24;16.83;;;9.38;;
36411;SDS011;22445;52.100;5.176;2022-11-20T03:48:50;16.35;;;8.90;;
36411;SDS011;22445;52.100;5.176;2022-11-20T03:51:29;19.00;;;9.93;;
36411;SDS011;22445;52.100;5.176;2022-11-20T03:53:56;18.33;;;9.35;;
36411;SDS011;22445;52.100;5.176;2022-11-20T03:56:24;14.43;;;8.75;;
36411;SDS011;22445;52.100;5.176;2022-11-20T03:58:51;15.63;;;9.57;;
36411;SDS011;22445;52.100;5.176;2022-11-20T04:01:18;17.75;;;8.98;;
36411;SDS011;22445;52.100;5.176;2022-11-20T04:03:45;16.88;;;9.90;;
36411;SDS011;22445;52.100;5.176;2022-11-20T04:06:18;19.10;;;9.82;;
36411;SDS011;22445;52.100;5.176;2022-11-20T04:08:45;20.38;;;11.05;;
36411;SDS011;22445;52.100;5.176;2022-11-20T04:11:12;16.63;;;9.75;;
36411;SDS011;22445;52.100;5.176;2022-11-20T04:13:38;21.40;;;8.88;;
36411;SDS011;22445;52.100;5.176;2022-11-20T04:16:05;18.33;;;9.02;;
36411;SDS011;22445;52.100;5.176;2022-11-20T04:18:31;14.13;;;9.07;;
36411;SDS011;22445;52.100;5.176;2022-11-20T04:20:57;18.45;;;9.60;;
36411;SDS011;22445;52.100;5.176;2022-11-20T04:23:23;18.50;;;9.50;;
36411;SDS011;22445;52.100;5.176;2022-11-20T04:25:49;16.83;;;9.35;;
36411;SDS011;22445;52.100;5.176;2022-11-20T04:28:15;16.52;;;10.23;;
36411;SDS011;22445;52.100;5.176;2022-11-20T04:30:41;16.27;;;8.73;;
36411;SDS011;22445;52.100;5.176;2022-11-20T04:33:06;19.88;;;10.38;;
36411;SDS011;22445;52.100;5.176;2022-11-20T04:35:35;18.20;;;9.32;;
36411;SDS011;22445;52.100;5.176;2022-11-20T04:38:01;16.58;;;9.00;;
36411;SDS011;22445;52.100;5.176;2022-11-20T04:40:27;15.77;;;9.07;;
36411;SDS011;22445;52.100;5.176;2022-11-20T04:42:53;19.67;;;9.63;;
36411;SDS011;22445;52.100;5.176;2022-11-20T04:45:19;15.88;;;9.13;;
36411;SDS011;22445;52.100;5.176;2022-11-20T04:47:44;17.13;;;9.55;;
36411;SDS011;22445;52.100;5.176;2022-11-20T04:50:10;16.08;;;9.63;;
36411;SDS011;22445;52.100;5.176;2022-11-20T04:52:35;18.80;;;9.57;;
36411;SDS011;22445;52.100;5.176;2022-11-20T04:55:01;16.17;;;9.32;;
36411;SDS011;22445;52.100;5.176;2022-11-20T04:57:26;13.52;;;9.05;;
36411;SDS011;22445;52.100;5.176;2022-11-20T04:59:52;15.60;;;9.18;;
36411;SDS011;22445;52.100;5.176;2022-11-20T05:02:17;14.20;;;8.50;;
36411;SDS011;22445;52.100;5.176;2022-11-20T05:04:43;17.17;;;9.55;;
36411;SDS011;22445;52.100;5.176;2022-11-20T05:07:08;14.82;;;9.05;;
36411;SDS011;22445;52.100;5.176;2022-11-20T05:09:34;15.82;;;8.63;;
36411;SDS011;22445;52.100;5.176;2022-11-20T05:11:59;14.02;;;8.80;;
36411;SDS011;22445;52.100;5.176;2022-11-20T05:14:25;14.68;;;8.95;;
36411;SDS011;22445;52.100;5.176;2022-11-20T05:16:50;16.05;;;9.15;;
36411;SDS011;22445;52.100;5.176;2022-11-20T05:19:16;14.90;;;8.93;;
36411;SDS011;22445;52.100;5.176;2022-11-20T05:21:41;17.55;;;9.40;;
36411;SDS011;22445;52.100;5.176;2022-11-20T05:24:07;17.80;;;8.75;;
36411;SDS011;22445;52.100;5.176;2022-11-20T05:26:32;14.15;;;8.13;;
36411;SDS011;22445;52.100;5.176;2022-11-20T05:28:58;17.17;;;11.25;;
36411;SDS011;22445;52.100;5.176;2022-11-20T05:31:24;15.73;;;11.63;;
36411;SDS011;22445;52.100;5.176;2022-11-20T05:33:50;18.88;;;10.45;;
36411;SDS011;22445;52.100;5.176;2022-11-20T05:36:16;15.95;;;9.25;;
36411;SDS011;22445;52.100;5.176;2022-11-20T05:38:42;17.70;;;9.10;;
36411;SDS011;22445;52.100;5.176;2022-11-20T05:43:55;16.45;;;8.77;;
36411;SDS011;22445;52.100;5.176;2022-11-20T05:46:21;16.83;;;9.20;;
36411;SDS011;22445;52.100;5.176;2022-11-20T05:48:46;16.35;;;9.57;;
36411;SDS011;22445;52.100;5.176;2022-11-20T05:51:13;16.40;;;9.13;;
36411;SDS011;22445;52.100;5.176;2022-11-20T05:53:40;19.75;;;10.02;;
36411;SDS011;22445;52.100;5.176;2022-11-20T05:56:13;17.52;;;9.50;;
36411;SDS011;22445;52.100;5.176;2022-11-20T05:58:41;20.77;;;13.27;;
36411;SDS011;22445;52.100;5.176;2022-11-20T06:01:09;18.92;;;13.02;;
36411;SDS011;22445;52.100;5.176;2022-11-20T06:03:55;20.30;;;12.32;;
36411;SDS011;22445;52.100;5.176;2022-11-20T06:06:21;16.90;;;11.90;;
36411;SDS011;22445;52.100;5.176;2022-11-20T06:08:47;17.33;;;11.10;;
36411;SDS011;22445;52.100;5.176;2022-11-20T06:11:13;19.05;;;11.60;;
36411;SDS011;22445;52.100;5.176;2022-11-20T06:13:39;15.85;;;9.02;;
36411;SDS011;22445;52.100;5.176;2022-11-20T06:16:05;15.57;;;8.52;;
36411;SDS011;22445;52.100;5.176;2022-11-20T06:18:31;18.83;;;8.90;;
36411;SDS011;22445;52.100;5.176;2022-11-20T06:21:00;15.60;;;9.18;;
36411;SDS011;22445;52.100;5.176;2022-11-20T06:23:46;15.85;;;9.35;;
36411;SDS011;22445;52.100;5.176;2022-11-20T06:26:14;15.90;;;8.65;;
36411;SDS011;22445;52.100;5.176;2022-11-20T06:28:41;17.52;;;9.23;;
36411;SDS011;22445;52.100;5.176;2022-11-20T06:31:07;17.55;;;9.93;;
36411;SDS011;22445;52.100;5.176;2022-11-20T06:33:35;16.38;;;8.80;;
36411;SDS011;22445;52.100;5.176;2022-11-20T06:36:02;16.10;;;9.07;;
36411;SDS011;22445;52.100;5.176;2022-11-20T06:38:28;16.70;;;8.73;;
36411;SDS011;22445;52.100;5.176;2022-11-20T06:40:54;15.00;;;8.95;;
36411;SDS011;22445;52.100;5.176;2022-11-20T06:43:20;14.35;;;8.40;;
36411;SDS011;22445;52.100;5.176;2022-11-20T06:45:45;17.20;;;9.88;;
36411;SDS011;22445;52.100;5.176;2022-11-20T06:48:11;16.00;;;9.43;;
36411;SDS011;22445;52.100;5.176;2022-11-20T06:50:37;16.80;;;9.23;;
36411;SDS011;22445;52.100;5.176;2022-11-20T06:53:03;17.85;;;9.20;;
36411;SDS011;22445;52.100;5.176;2022-11-20T06:55:29;15.68;;;8.73;;
36411;SDS011;22445;52.100;5.176;2022-11-20T06:57:56;15.18;;;9.50;;
36411;SDS011;22445;52.100;5.176;2022-11-20T07:00:21;16.60;;;10.02;;
36411;SDS011;22445;52.100;5.176;2022-11-20T07:02:47;17.48;;;9.40;;
36411;SDS011;22445;52.100;5.176;2022-11-20T07:05:12;20.42;;;10.13;;
36411;SDS011;22445;52.100;5.176;2022-11-20T07:07:38;16.23;;;9.40;;
36411;SDS011;22445;52.100;5.176;2022-11-20T07:10:03;15.73;;;9.63;;
36411;SDS011;22445;52.100;5.176;2022-11-20T07:12:29;18.38;;;9.50;;
36411;SDS011;22445;52.100;5.176;2022-11-20T07:14:55;16.60;;;9.77;;
36411;SDS011;22445;52.100;5.176;2022-11-20T07:17:21;18.10;;;9.65;;
36411;SDS011;22445;52.100;5.176;2022-11-20T07:19:47;20.08;;;10.52;;
36411;SDS011;22445;52.100;5.176;2022-11-20T07:22:12;20.00;;;10.48;;
36411;SDS011;22445;52.100;5.176;2022-11-20T07:24:38;16.50;;;9.68;;
36411;SDS011;22445;52.100;5.176;2022-11-20T07:27:04;19.83;;;11.30;;
36411;SDS011;22445;52.100;5.176;2022-11-20T07:29:29;20.48;;;11.55;;
36411;SDS011;22445;52.100;5.176;2022-11-20T07:31:55;23.02;;;12.50;;
36411;SDS011;22445;52.100;5.176;2022-11-20T07:34:21;24.00;;;13.00;;
36411;SDS011;22445;52.100;5.176;2022-11-20T07:36:47;31.60;;;14.73;;
36411;SDS011;22445;52.100;5.176;2022-11-20T07:39:13;33.97;;;18.73;;
36411;SDS011;22445;52.100;5.176;2022-11-20T07:41:38;37.08;;;19.08;;
36411;SDS011;22445;52.100;5.176;2022-11-20T07:44:04;41.60;;;20.23;;
36411;SDS011;22445;52.100;5.176;2022-11-20T07:46:30;38.17;;;20.52;;
36411;SDS011;22445;52.100;5.176;2022-11-20T07:48:55;38.22;;;21.73;;
36411;SDS011;22445;52.100;5.176;2022-11-20T07:51:21;51.97;;;25.05;;
36411;SDS011;22445;52.100;5.176;2022-11-20T07:53:47;48.22;;;25.20;;
36411;SDS011;22445;52.100;5.176;2022-11-20T07:56:12;55.95;;;27.08;;
36411;SDS011;22445;52.100;5.176;2022-11-20T07:58:39;44.05;;;24.70;;
36411;SDS011;22445;52.100;5.176;2022-11-20T08:01:05;40.83;;;22.95;;
36411;SDS011;22445;52.100;5.176;2022-11-20T08:03:31;37.00;;;21.90;;
36411;SDS011;22445;52.100;5.176;2022-11-20T08:06:00;35.47;;;21.10;;
36411;SDS011;22445;52.100;5.176;2022-11-20T08:08:27;33.08;;;20.20;;
36411;SDS011;22445;52.100;5.176;2022-11-20T08:10:52;43.53;;;23.42;;
36411;SDS011;22445;52.100;5.176;2022-11-20T08:13:38;44.40;;;25.02;;
36411;SDS011;22445;52.100;5.176;2022-11-20T08:16:22;50.75;;;27.83;;
36411;SDS011;22445;52.100;5.176;2022-11-20T08:18:47;45.42;;;26.48;;
36411;SDS011;22445;52.100;5.176;2022-11-20T08:21:13;34.53;;;20.85;;
36411;SDS011;22445;52.100;5.176;2022-11-20T08:23:38;35.60;;;21.40;;
36411;SDS011;22445;52.100;5.176;2022-11-20T08:26:04;34.78;;;20.55;;
36411;SDS011;22445;52.100;5.176;2022-11-20T08:28:29;28.23;;;18.92;;
36411;SDS011;22445;52.100;5.176;2022-11-20T08:31:01;27.08;;;18.17;;
36411;SDS011;22445;52.100;5.176;2022-11-20T08:33:27;24.95;;;16.40;;
36411;SDS011;22445;52.100;5.176;2022-11-20T08:35:53;28.45;;;15.88;;
36411;SDS011;22445;52.100;5.176;2022-11-20T08:38:18;26.17;;;15.93;;
36411;SDS011;22445;52.100;5.176;2022-11-20T08:40:44;23.88;;;14.18;;
36411;SDS011;22445;52.100;5.176;2022-11-20T08:43:29;24.90;;;15.13;;
36411;SDS011;22445;52.100;5.176;2022-11-20T08:45:56;30.05;;;16.67;;
36411;SDS011;22445;52.100;5.176;2022-11-20T08:48:22;27.75;;;17.08;;
36411;SDS011;22445;52.100;5.176;2022-11-20T08:50:47;31.23;;;15.57;;
36411;SDS011;22445;52.100;5.176;2022-11-20T08:53:13;24.67;;;16.15;;
36411;SDS011;22445;52.100;5.176;2022-11-20T08:55:38;26.73;;;16.65;;
36411;SDS011;22445;52.100;5.176;2022-11-20T08:58:05;27.40;;;15.65;;
36411;SDS011;22445;52.100;5.176;2022-11-20T09:00:31;23.73;;;14.98;;
36411;SDS011;22445;52.100;5.176;2022-11-20T09:02:57;28.30;;;16.85;;
36411;SDS011;22445;52.100;5.176;2022-11-20T09:05:24;27.13;;;17.23;;
36411;SDS011;22445;52.100;5.176;2022-11-20T09:07:49;25.27;;;16.00;;
36411;SDS011;22445;52.100;5.176;2022-11-20T09:10:15;27.65;;;15.63;;
36411;SDS011;22445;52.100;5.176;2022-11-20T09:12:40;26.50;;;17.67;;
36411;SDS011;22445;52.100;5.176;2022-11-20T09:15:06;29.58;;;17.73;;
36411;SDS011;22445;52.100;5.176;2022-11-20T09:17:32;27.65;;;17.23;;
36411;SDS011;22445;52.100;5.176;2022-11-20T09:19:57;25.67;;;16.67;;
36411;SDS011;22445;52.100;5.176;2022-11-20T09:22:23;28.02;;;17.08;;
36411;SDS011;22445;52.100;5.176;2022-11-20T09:24:49;30.33;;;15.82;;
36411;SDS011;22445;52.100;5.176;2022-11-20T09:27:14;25.35;;;17.05;;
36411;SDS011;22445;52.100;5.176;2022-11-20T09:29:44;27.85;;;17.08;;
36411;SDS011;22445;52.100;5.176;2022-11-20T09:32:09;26.70;;;16.10;;
36411;SDS011;22445;52.100;5.176;2022-11-20T09:34:35;27.35;;;16.40;;
36411;SDS011;22445;52.100;5.176;2022-11-20T09:37:01;27.70;;;16.70;;
36411;SDS011;22445;52.100;5.176;2022-11-20T09:39:26;23.17;;;16.23;;
36411;SDS011;22445;52.100;5.176;2022-11-20T09:54:15;18.58;;;13.13;;
36411;SDS011;22445;52.100;5.176;2022-11-20T09:57:02;20.63;;;12.85;;
36411;SDS011;22445;52.100;5.176;2022-11-20T10:08:23;19.83;;;13.45;;
36411;SDS011;22445;52.100;5.176;2022-11-20T10:11:00;20.13;;;13.18;;
36411;SDS011;22445;52.100;5.176;2022-11-20T10:26:52;16.42;;;11.63;;
36411;SDS011;22445;52.100;5.176;2022-11-20T10:29:17;23.33;;;13.65;;
36411;SDS011;22445;52.100;5.176;2022-11-20T10:31:56;22.70;;;14.43;;
36411;SDS011;22445;52.100;5.176;2022-11-20T10:34:28;21.27;;;12.65;;
36411;SDS011;22445;52.100;5.176;2022-11-20T10:37:02;21.75;;;14.63;;
36411;SDS011;22445;52.100;5.176;2022-11-20T10:42:37;22.38;;;14.27;;
36411;SDS011;22445;52.100;5.176;2022-11-20T10:51:35;22.52;;;15.20;;
36411;SDS011;22445;52.100;5.176;2022-11-20T11:00:32;25.60;;;15.88;;
36411;SDS011;22445;52.100;5.176;2022-11-20T11:02:58;24.77;;;15.45;;
36411;SDS011;22445;52.100;5.176;2022-11-20T11:05:33;20.92;;;14.80;;
36411;SDS011;22445;52.100;5.176;2022-11-20T11:08:07;23.88;;;15.93;;
36411;SDS011;22445;52.100;5.176;2022-11-20T11:10:39;23.13;;;16.33;;
36411;SDS011;22445;52.100;5.176;2022-11-20T11:13:30;24.23;;;16.13;;
36411;SDS011;22445;52.100;5.176;2022-11-20T11:15:56;22.17;;;15.23;;
36411;SDS011;22445;52.100;5.176;2022-11-20T11:18:26;25.42;;;16.83;;
36411;SDS011;22445;52.100;5.176;2022-11-20T11:20:56;26.05;;;17.70;;
36411;SDS011;22445;52.100;5.176;2022-11-20T11:23:31;32.53;;;18.67;;
36411;SDS011;22445;52.100;5.176;2022-11-20T11:26:03;26.63;;;17.00;;
36411;SDS011;22445;52.100;5.176;2022-11-20T11:28:52;31.50;;;17.52;;
36411;SDS011;22445;52.100;5.176;2022-11-20T11:31:22;27.83;;;17.38;;
36411;SDS011;22445;52.100;5.176;2022-11-20T11:36:39;25.23;;;17.95;;
36411;SDS011;22445;52.100;5.176;2022-11-20T11:39:08;29.27;;;18.38;;
36411;SDS011;22445;52.100;5.176;2022-11-20T11:41:36;29.00;;;19.33;;
36411;SDS011;22445;52.100;5.176;2022-11-20T11:44:18;31.80;;;19.63;;
36411;SDS011;22445;52.100;5.176;2022-11-20T11:47:03;29.00;;;18.13;;
36411;SDS011;22445;52.100;5.176;2022-11-20T11:49:31;31.83;;;20.17;;
36411;SDS011;22445;52.100;5.176;2022-11-20T11:52:02;32.05;;;19.88;;
36411;SDS011;22445;52.100;5.176;2022-11-20T11:54:55;31.55;;;19.30;;
36411;SDS011;22445;52.100;5.176;2022-11-20T12:00:34;30.48;;;19.42;;
36411;SDS011;22445;52.100;5.176;2022-11-20T12:03:04;39.50;;;22.17;;
36411;SDS011;22445;52.100;5.176;2022-11-20T12:05:59;34.92;;;21.40;;
36411;SDS011;22445;52.100;5.176;2022-11-20T12:08:30;38.22;;;22.63;;
36411;SDS011;22445;52.100;5.176;2022-11-20T12:11:04;43.28;;;23.60;;
36411;SDS011;22445;52.100;5.176;2022-11-20T12:16:21;42.83;;;23.13;;
36411;SDS011;22445;52.100;5.176;2022-11-20T12:18:48;43.10;;;24.80;;
36411;SDS011;22445;52.100;5.176;2022-11-20T12:24:21;41.78;;;22.95;;
36411;SDS011;22445;52.100;5.176;2022-11-20T12:27:23;47.08;;;24.55;;
36411;SDS011;22445;52.100;5.176;2022-11-20T12:30:19;48.08;;;24.02;;
36411;SDS011;22445;52.100;5.176;2022-11-20T12:54:40;48.30;;;25.05;;
36411;SDS011;22445;52.100;5.176;2022-11-20T13:01:35;54.95;;;25.65;;
36411;SDS011;22445;52.100;5.176;2022-11-20T13:07:37;47.20;;;25.25;;
36411;SDS011;22445;52.100;5.176;2022-11-20T13:10:03;52.38;;;27.67;;
36411;SDS011;22445;52.100;5.176;2022-11-20T13:12:36;47.30;;;26.67;;
36411;SDS011;22445;52.100;5.176;2022-11-20T13:18:47;48.67;;;27.58;;
36411;SDS011;22445;52.100;5.176;2022-11-20T13:21:13;50.08;;;27.67;;
36411;SDS011;22445;52.100;5.176;2022-11-20T13:23:42;47.05;;;26.27;;
36411;SDS011;22445;52.100;5.176;2022-11-20T13:26:19;46.53;;;26.58;;
36411;SDS011;22445;52.100;5.176;2022-11-20T13:28:46;49.17;;;26.45;;
36411;SDS011;22445;52.100;5.176;2022-11-20T13:33:57;55.60;;;28.05;;
36411;SDS011;22445;52.100;5.176;2022-11-20T13:36:25;52.15;;;26.63;;
36411;SDS011;22445;52.100;5.176;2022-11-20T13:38:53;50.80;;;27.50;;
36411;SDS011;22445;52.100;5.176;2022-11-20T13:41:23;51.85;;;27.92;;
36411;SDS011;22445;52.100;5.176;2022-11-20T13:43:54;52.60;;;28.35;;
36411;SDS011;22445;52.100;5.176;2022-11-20T13:46:23;56.33;;;27.95;;
36411;SDS011;22445;52.100;5.176;2022-11-20T13:48:50;58.70;;;27.92;;
36411;SDS011;22445;52.100;5.176;2022-11-20T14:00:32;52.80;;;27.38;;
36411;SDS011;22445;52.100;5.176;2022-11-20T14:03:09;62.90;;;30.08;;
36411;SDS011;22445;52.100;5.176;2022-11-20T14:05:40;57.25;;;27.98;;
36411;SDS011;22445;52.100;5.176;2022-11-20T14:08:19;61.30;;;29.33;;
36411;SDS011;22445;52.100;5.176;2022-11-20T14:11:21;57.58;;;28.50;;
36411;SDS011;22445;52.100;5.176;2022-11-20T14:16:40;59.22;;;30.45;;
36411;SDS011;22445;52.100;5.176;2022-11-20T14:19:48;60.45;;;31.23;;
36411;SDS011;22445;52.100;5.176;2022-11-20T14:25:21;63.80;;;32.00;;
36411;SDS011;22445;52.100;5.176;2022-11-20T14:27:58;63.78;;;32.10;;
36411;SDS011;22445;52.100;5.176;2022-11-20T14:30:28;71.13;;;33.22;;
36411;SDS011;22445;52.100;5.176;2022-11-20T14:33:22;66.25;;;33.22;;
36411;SDS011;22445;52.100;5.176;2022-11-20T14:35:53;69.78;;;32.75;;
36411;SDS011;22445;52.100;5.176;2022-11-20T14:38:22;64.60;;;32.92;;
36411;SDS011;22445;52.100;5.176;2022-11-20T14:40:50;75.45;;;33.58;;
36411;SDS011;22445;52.100;5.176;2022-11-20T14:43:20;66.78;;;33.65;;
36411;SDS011;22445;52.100;5.176;2022-11-20T14:46:00;71.25;;;34.17;;
36411;SDS011;22445;52.100;5.176;2022-11-20T14:48:29;66.18;;;34.03;;
36411;SDS011;22445;52.100;5.176;2022-11-20T14:50:57;70.30;;;35.33;;
36411;SDS011;22445;52.100;5.176;2022-11-20T14:53:24;70.85;;;33.30;;
36411;SDS011;22445;52.100;5.176;2022-11-20T14:56:02;71.70;;;37.55;;
36411;SDS011;22445;52.100;5.176;2022-11-20T14:58:28;72.05;;;35.08;;
36411;SDS011;22445;52.100;5.176;2022-11-20T15:00:56;72.93;;;35.75;;
36411;SDS011;22445;52.100;5.176;2022-11-20T15:03:36;72.25;;;36.00;;
36411;SDS011;22445;52.100;5.176;2022-11-20T15:06:03;83.25;;;35.20;;
36411;SDS011;22445;52.100;5.176;2022-11-20T15:08:33;77.63;;;34.90;;
36411;SDS011;22445;52.100;5.176;2022-11-20T15:10:58;75.28;;;36.78;;
36411;SDS011;22445;52.100;5.176;2022-11-20T15:13:39;70.18;;;35.17;;
36411;SDS011;22445;52.100;5.176;2022-11-20T15:16:13;72.50;;;34.45;;
36411;SDS011;22445;52.100;5.176;2022-11-20T15:18:43;78.47;;;36.90;;
36411;SDS011;22445;52.100;5.176;2022-11-20T15:21:16;74.97;;;34.88;;
36411;SDS011;22445;52.100;5.176;2022-11-20T15:23:43;74.18;;;36.25;;
36411;SDS011;22445;52.100;5.176;2022-11-20T15:26:09;69.93;;;36.47;;
36411;SDS011;22445;52.100;5.176;2022-11-20T15:28:37;76.25;;;34.75;;
36411;SDS011;22445;52.100;5.176;2022-11-20T15:31:05;72.22;;;36.63;;
36411;SDS011;22445;52.100;5.176;2022-11-20T15:33:32;71.75;;;33.22;;
36411;SDS011;22445;52.100;5.176;2022-11-20T15:35:58;78.43;;;35.00;;
36411;SDS011;22445;52.100;5.176;2022-11-20T15:38:24;66.00;;;34.70;;
36411;SDS011;22445;52.100;5.176;2022-11-20T15:40:50;66.15;;;34.20;;
36411;SDS011;22445;52.100;5.176;2022-11-20T15:43:15;76.70;;;36.15;;
36411;SDS011;22445;52.100;5.176;2022-11-20T15:48:45;64.65;;;32.75;;
36411;SDS011;22445;52.100;5.176;2022-11-20T15:54:12;68.78;;;33.85;;
36411;SDS011;22445;52.100;5.176;2022-11-20T15:56:38;63.78;;;33.63;;
36411;SDS011;22445;52.100;5.176;2022-11-20T15:59:04;62.22;;;31.67;;
36411;SDS011;22445;52.100;5.176;2022-11-20T16:01:29;60.10;;;32.17;;
36411;SDS011;22445;52.100;5.176;2022-11-20T16:03:55;57.10;;;30.58;;
36411;SDS011;22445;52.100;5.176;2022-11-20T16:06:21;64.05;;;33.25;;
36411;SDS011;22445;52.100;5.176;2022-11-20T16:08:46;59.65;;;34.03;;
36411;SDS011;22445;52.100;5.176;2022-11-20T16:11:13;59.67;;;32.47;;
36411;SDS011;22445;52.100;5.176;2022-11-20T16:13:39;64.65;;;33.63;;
36411;SDS011;22445;52.100;5.176;2022-11-20T16:16:26;61.00;;;32.85;;
36411;SDS011;22445;52.100;5.176;2022-11-20T16:18:55;53.92;;;30.60;;
36411;SDS011;22445;52.100;5.176;2022-11-20T16:21:21;60.55;;;33.55;;
36411;SDS011;22445;52.100;5.176;2022-11-20T16:23:52;63.90;;;34.10;;
36411;SDS011;22445;52.100;5.176;2022-11-20T16:26:18;65.60;;;34.85;;
36411;SDS011;22445;52.100;5.176;2022-11-20T16:28:44;64.05;;;33.10;;
36411;SDS011;22445;52.100;5.176;2022-11-20T16:31:10;59.28;;;33.85;;
36411;SDS011;22445;52.100;5.176;2022-11-20T16:33:37;61.45;;;33.33;;
36411;SDS011;22445;52.100;5.176;2022-11-20T16:36:12;66.45;;;34.80;;
36411;SDS011;22445;52.100;5.176;2022-11-20T16:38:39;66.97;;;35.22;;
36411;SDS011;22445;52.100;5.176;2022-11-20T16:41:05;58.72;;;32.92;;
36411;SDS011;22445;52.100;5.176;2022-11-20T16:43:31;65.88;;;34.58;;
36411;SDS011;22445;52.100;5.176;2022-11-20T16:45:57;66.70;;;34.95;;
36411;SDS011;22445;52.100;5.176;2022-11-20T16:48:22;64.15;;;32.85;;
36411;SDS011;22445;52.100;5.176;2022-11-20T16:50:49;62.85;;;34.95;;
36411;SDS011;22445;52.100;5.176;2022-11-20T16:53:17;62.28;;;34.63;;